Time;durP1;ratioP1;P1;durP2;ratioP2;P2;SDS_P1;SDS_P2;PMS_P1;PMS_P2;Temp;Humidity;BMP_temperature;BMP_pressure;BME280_temperature;BME280_humidity;BME280_pressure;Samples;Min_cycle;Max_cycle;Signal;HPM_P1;HPM_P2
2022/08/25 00:00:22;;;;;;;;;;;;;;;19.51;63.61;96996.03;30001;983;1863;-68
2022/08/25 00:00:53;;;;;;;;;;;;;;;19.50;63.83;96988.91;30001;983;1854;-68
2022/08/25 00:01:29;;;;;;;;;;;;;;;19.49;63.80;96998.31;30001;983;1885;-67
2022/08/25 00:02:01;;;;;;;;;;;;;;;19.49;63.47;96992.81;30001;983;1812;-68
2022/08/25 00:02:32;;;;;;;;;;;;;;;19.48;63.47;96996.69;30001;983;1885;-67
2022/08/25 00:03:03;;;;;;;;;;;;;;;19.50;63.55;96988.91;30001;983;1881;-69
2022/08/25 00:03:34;;;;;;;;;;;;;;;19.49;63.23;96990.06;30001;983;1863;-68
2022/08/25 00:04:09;;;;;;;;;;;;;;;19.50;63.46;96991.66;30001;983;1876;-69
2022/08/25 00:04:40;;;;;;;;;;;;;;;19.49;63.40;96990.06;30001;982;1885;-67
2022/08/25 00:05:11;;;;;;;;;;;;;;;19.48;63.94;96991.19;30001;982;1881;-67
2022/08/25 00:05:43;;;;;;;;;;;;;;;19.46;63.68;96993.50;30001;982;1885;-69
2022/08/25 00:06:14;;;;;;;;;;;;;;;19.45;63.31;96991.88;30001;982;1881;-67
2022/08/25 00:06:46;;;;;;;;;;;;;;;19.45;63.31;96994.62;30001;986;1864;-54
2022/08/25 00:07:17;;;;;;;;;;;;;;;19.44;63.68;96991.09;30001;982;1877;-68
2022/08/25 00:07:47;;;;;;;;;;;;;;;19.45;63.53;96994.62;30001;983;1885;-67
2022/08/25 00:08:18;;;;;;;;;;;;;;;19.42;63.54;96996.94;30001;983;1880;-68
2022/08/25 00:08:49;;;;;;;;;;;;;;;19.43;63.15;96986.72;30001;983;1885;-68
2022/08/25 00:09:22;;;;;;;;;;;;;;;19.43;63.51;96995.78;30001;983;1881;-66
2022/08/25 00:09:54;;;;;;;;;;;;;;;19.43;63.29;96990.28;30001;983;1885;-54
2022/08/25 00:10:27;;;;;;;;;;;;;;;19.44;63.51;96991.09;30001;983;1881;-67
2022/08/25 00:10:58;;;;;;;;;;;;;;;19.45;63.53;96991.88;30001;983;1863;-69
2022/08/25 00:11:30;;;;;;;;;;;;;;;19.45;63.26;96991.88;30001;983;1855;-67
2022/08/25 00:12:02;;;;;;;;;;;;;;;19.45;63.22;96992.69;30001;982;1885;-69
2022/08/25 00:12:33;;;;;;;;;;;;;;;19.46;63.34;96985.25;30001;982;1859;-68
2022/08/25 00:13:04;;;;;;;;;;;;;;;19.47;63.13;96992.34;30001;982;1881;-70
2022/08/25 00:13:35;;;;;;;;;;;;;;;19.46;63.40;96993.50;30001;982;1881;-68
2022/08/25 00:14:09;;;;;;;;;;;;;;;19.45;63.20;96986.38;30001;982;1885;-67
2022/08/25 00:14:41;;;;;;;;;;;;;;;19.45;63.37;96989.13;30001;982;1881;-69
2022/08/25 00:15:12;;;;;;;;;;;;;;;19.45;63.23;96989.13;30001;982;1886;-69
2022/08/25 00:15:45;;;;;;;;;;;;;;;19.44;63.45;96988.34;30001;983;1880;-67
2022/08/25 00:16:17;;;;;;;;;;;;;;;19.42;63.21;96988.69;30001;983;1863;-67
2022/08/25 00:16:48;;;;;;;;;;;;;;;19.42;63.47;96999.69;30001;983;1876;-69
2022/08/25 00:17:19;;;;;;;;;;;;;;;19.42;63.48;96994.19;30001;983;1863;-70
2022/08/25 00:17:50;;;;;;;;;;;;;;;19.42;63.66;96988.69;30001;983;1876;-67
2022/08/25 00:18:21;;;;;;;;;;;;;;;19.42;63.56;96985.13;30001;983;1885;-66
2022/08/25 00:18:55;;;;;;;;;;;;;;;19.41;63.53;96989.84;30001;983;1881;-67
2022/08/25 00:19:28;;;;;;;;;;;;;;;19.40;63.32;96985.47;30001;983;1885;-69
2022/08/25 00:19:59;;;;;;;;;;;;;;;19.41;63.53;96994.53;30001;982;1881;-67
2022/08/25 00:20:31;;;;;;;;;;;;;;;19.40;63.24;96985.47;30001;982;1885;-68
2022/08/25 00:21:02;;;;;;;;;;;;;;;19.40;63.19;96985.47;30001;982;1859;-69
2022/08/25 00:21:33;;;;;;;;;;;;;;;19.40;63.36;96985.47;30001;982;1881;-55
2022/08/25 00:22:05;;;;;;;;;;;;;;;19.41;63.30;96998.09;30001;982;1859;-68
2022/08/25 00:22:36;;;;;;;;;;;;;;;19.40;63.28;96985.47;30002;982;1881;-68
2022/08/25 00:23:07;;;;;;;;;;;;;;;19.40;63.53;96990.97;30002;987;1858;-67
2022/08/25 00:23:38;;;;;;;;;;;;;;;19.40;63.40;96990.22;30002;983;1880;-66
2022/08/25 00:24:10;;;;;;;;;;;;;;;19.39;63.76;96985.84;30002;983;1881;-67
2022/08/25 00:24:41;;;;;;;;;;;;;;;19.39;63.35;96983.91;30002;983;1885;-68
2022/08/25 00:25:12;;;;;;;;;;;;;;;19.38;63.79;96987.00;30002;983;1881;-55
2022/08/25 00:25:43;;;;;;;;;;;;;;;19.37;64.04;96983.44;30002;983;1885;-68
2022/08/25 00:26:15;;;;;;;;;;;;;;;19.35;63.92;96982.19;30002;983;1881;-69
2022/08/25 00:26:47;;;;;;;;;;;;;;;19.36;63.67;96983.78;30002;983;1885;-68
2022/08/25 00:27:19;;;;;;;;;;;;;;;19.35;63.81;96977.50;30002;986;1881;-67
2022/08/25 00:27:50;;;;;;;;;;;;;;;19.34;63.89;96981.38;30002;982;1864;-68
2022/08/25 00:28:21;;;;;;;;;;;;;;;19.34;64.63;96981.38;30002;982;1877;-68
2022/08/25 00:28:52;;;;;;;;;;;;;;;19.32;63.93;96982.87;30002;982;1885;-67
2022/08/25 00:29:27;;;;;;;;;;;;;;;19.32;64.12;96989.19;30002;957;1884;-69
2022/08/25 00:29:59;;;;;;;;;;;;;;;19.30;63.82;96985.97;30002;982;1881;-70
2022/08/25 00:30:30;;;;;;;;;;;;;;;19.30;64.64;96985.97;30002;983;1880;-69
2022/08/25 00:31:02;;;;;;;;;;;;;;;19.29;63.96;96992.63;30002;983;1885;-66
2022/08/25 00:31:36;;;;;;;;;;;;;;;19.28;64.39;96988.28;30002;983;1881;-68
2022/08/25 00:32:07;;;;;;;;;;;;;;;19.28;63.96;96982.78;30002;983;1885;-66
2022/08/25 00:32:38;;;;;;;;;;;;;;;19.28;64.11;96988.28;30002;983;1859;-66
2022/08/25 00:33:09;;;;;;;;;;;;;;;19.29;63.96;96978.06;30002;983;1881;-68
2022/08/25 00:33:42;;;;;;;;;;;;;;;19.29;64.34;96989.87;30002;983;1881;-68
2022/08/25 00:34:16;;;;;;;;;;;;;;;19.30;63.88;96990.69;30002;983;1885;-69
2022/08/25 00:34:46;;;;;;;;;;;;;;;19.30;64.89;96980.47;30002;982;1881;-70
2022/08/25 00:35:17;;;;;;;;;;;;;;;19.30;64.53;96988.72;30002;982;1885;-68
2022/08/25 00:35:49;;;;;;;;;;;;;;;19.29;64.16;96983.56;30002;982;1881;-69
2022/08/25 00:36:23;;;;;;;;;;;;;;;19.30;64.03;96979.69;30002;982;1885;-68
2022/08/25 00:36:54;;;;;;;;;;;;;;;19.31;64.42;96986.78;30002;982;1881;-66
2022/08/25 00:37:26;;;;;;;;;;;;;;;19.34;64.27;96981.38;30002;983;1863;-55
2022/08/25 00:38:00;;;;;;;;;;;;;;;19.35;64.10;96983.00;30002;983;1854;-68
2022/08/25 00:38:31;;;;;;;;;;;;;;;19.38;64.10;96982.31;30002;983;1885;-66
2022/08/25 00:39:02;;;;;;;;;;;;;;;19.39;64.07;96983.91;30002;983;1881;-67
2022/08/25 00:39:35;;;;;;;;;;;;;;;19.40;64.81;96985.47;30002;983;1863;-55
2022/08/25 00:40:06;;;;;;;;;;;;;;;19.39;64.15;96981.16;30002;983;1876;-67
2022/08/25 00:40:38;;;;;;;;;;;;;;;19.41;64.03;96984.31;30002;983;1885;-69
2022/08/25 00:41:12;;;;;;;;;;;;;;;19.41;64.53;96989.03;30002;983;1881;-67
2022/08/25 00:41:43;;;;;;;;;;;;;;;19.39;64.50;96981.16;30002;983;1885;-67
2022/08/25 00:42:14;;;;;;;;;;;;;;;19.37;64.53;96983.44;30002;982;1881;-68
2022/08/25 00:42:45;;;;;;;;;;;;;;;19.37;64.20;96985.41;30002;982;1885;-66
2022/08/25 00:43:17;;;;;;;;;;;;;;;19.37;64.12;96983.44;30002;982;1859;-69
2022/08/25 00:43:53;;;;;;;;;;;;;;;19.37;64.09;96985.41;30002;968;1895;-67
2022/08/25 00:44:26;;;;;;;;;;;;;;;19.36;64.26;96984.59;30002;982;1881;-67
2022/08/25 00:44:57;;;;;;;;;;;;;;;19.38;64.11;96982.31;30002;983;1884;-69
2022/08/25 00:45:28;;;;;;;;;;;;;;;19.38;64.50;96981.50;30002;983;1880;-67
2022/08/25 00:45:59;;;;;;;;;;;;;;;19.36;64.20;96981.84;30002;983;1885;-66
2022/08/25 00:46:32;;;;;;;;;;;;;;;19.36;64.47;96989.28;30002;983;1881;-67
2022/08/25 00:47:05;;;;;;;;;;;;;;;19.36;64.15;96984.59;30002;983;1885;-68
2022/08/25 00:47:36;;;;;;;;;;;;;;;19.37;64.11;96990.91;30002;983;1881;-67
2022/08/25 00:48:07;;;;;;;;;;;;;;;19.35;64.37;96983.00;30002;983;1885;-55
2022/08/25 00:48:38;;;;;;;;;;;;;;;19.36;64.06;96990.09;30002;983;1859;-66
2022/08/25 00:49:14;;;;;;;;;;;;;;;19.35;64.04;96980.25;30002;983;1881;-68
2022/08/25 00:49:47;;;;;;;;;;;;;;;19.34;64.33;96984.13;30002;982;1881;-67
2022/08/25 00:50:19;;;;;;;;;;;;;;;19.36;63.90;96992.03;30002;982;1885;-69
2022/08/25 00:50:52;;;;;;;;;;;;;;;19.35;64.13;96985.75;30002;982;1881;-67
2022/08/25 00:51:43;;;;;;;;;;;;;;;19.35;64.25;96987.69;30002;982;1886;-69
2022/08/25 00:52:21;;;;;;;;;;;;;;;19.33;64.07;96988.03;30002;983;1880;-70
2022/08/25 00:52:53;;;;;;;;;;;;;;;19.33;64.08;96978.97;30002;983;1863;-65
2022/08/25 00:53:26;;;;;;;;;;;;;;;19.33;64.44;96988.03;30002;983;1876;-67
2022/08/25 00:53:57;;;;;;;;;;;;;;;19.34;64.32;96981.38;30002;983;1885;-68
2022/08/25 00:54:31;;;;;;;;;;;;;;;19.34;64.21;96978.62;30002;983;1881;-66
2022/08/25 00:55:07;;;;;;;;;;;;;;;19.36;64.24;96983.78;30002;983;1885;-67
2022/08/25 00:55:39;;;;;;;;;;;;;;;19.38;64.17;96987.00;30002;983;1881;-67
2022/08/25 00:56:12;;;;;;;;;;;;;;;19.37;64.40;96986.19;30002;974;1904;-69
2022/08/25 00:56:44;;;;;;;;;;;;;;;19.35;64.43;96983.00;30002;983;1881;-67
2022/08/25 00:57:17;;;;;;;;;;;;;;;19.35;64.14;96983.00;30002;982;1885;-68
2022/08/25 00:58:01;;;;;;;;;;;;;;;19.35;64.44;96982.19;30002;982;1859;-66
2022/08/25 00:58:33;;;;;;;;;;;;;;;19.35;64.13;96983.00;30002;982;1881;-67
2022/08/25 00:59:04;;;;;;;;;;;;;;;19.36;64.13;96984.59;30002;982;1881;-66
2022/08/25 00:59:35;;;;;;;;;;;;;;;19.35;64.41;96988.50;30002;982;1886;-55
2022/08/25 01:00:10;;;;;;;;;;;;;;;19.33;64.30;96985.28;30002;983;1880;-67
2022/08/25 01:00:43;;;;;;;;;;;;;;;19.33;64.42;96978.97;30002;983;1885;-67
2022/08/25 01:01:14;;;;;;;;;;;;;;;19.33;64.63;96982.53;30002;983;1881;-65
2022/08/25 01:01:45;;;;;;;;;;;;;;;19.33;64.33;96979.78;30002;983;1791;-69
2022/08/25 01:02:16;;;;;;;;;;;;;;;19.32;64.45;96989.19;30002;985;1881;-68
2022/08/25 01:02:47;;;;;;;;;;;;;;;19.33;64.53;96979.78;30002;983;1863;-69
2022/08/25 01:03:19;;;;;;;;;;;;;;;19.33;64.36;96979.78;30002;983;1876;-53
2022/08/25 01:03:51;;;;;;;;;;;;;;;19.33;64.10;96979.78;30002;983;1885;-69
2022/08/25 01:04:28;;;;;;;;;;;;;;;19.32;64.43;96972.69;30002;983;1881;-66
2022/08/25 01:05:02;;;;;;;;;;;;;;;19.32;64.36;96975.44;30002;982;1864;-69
2022/08/25 01:05:34;;;;;;;;;;;;;;;19.32;64.64;96972.69;30002;982;1877;-69
2022/08/25 01:06:06;;;;;;;;;;;;;;;19.33;64.33;96977.03;30002;982;1885;-67
2022/08/25 01:06:40;;;;;;;;;;;;;;;19.37;64.41;96972.44;30002;982;1881;-67
2022/08/25 01:07:12;;;;;;;;;;;;;;;19.38;64.25;96971.28;30002;982;1886;-68
2022/08/25 01:07:43;;;;;;;;;;;;;;;19.38;64.56;96976.78;30002;983;1880;-69
2022/08/25 01:08:15;;;;;;;;;;;;;;;19.36;64.52;96968.09;30002;983;1863;-67
2022/08/25 01:08:46;;;;;;;;;;;;;;;19.35;64.77;96974.75;30002;983;1876;-67
2022/08/25 01:09:18;;;;;;;;;;;;;;;19.33;64.64;96979.78;30002;983;1885;-68
2022/08/25 01:09:49;;;;;;;;;;;;;;;19.33;64.81;96968.78;30002;983;1881;-65
2022/08/25 01:10:21;;;;;;;;;;;;;;;19.34;64.62;96975.09;30002;983;1885;-67
2022/08/25 01:10:53;;;;;;;;;;;;;;;19.35;64.50;96968.44;30002;983;1859;-67
2022/08/25 01:11:26;;;;;;;;;;;;;;;19.34;64.33;96981.38;30002;983;1881;-68
2022/08/25 01:11:57;;;;;;;;;;;;;;;19.33;64.70;96971.53;30002;982;1847;-67
2022/08/25 01:12:28;;;;;;;;;;;;;;;19.32;64.47;96972.69;30002;982;1885;-66
2022/08/25 01:13:10;;;;;;;;;;;;;;;19.33;64.81;96968.78;30002;982;1881;-67
2022/08/25 01:13:44;;;;;;;;;;;;;;;19.34;64.70;96969.59;30001;982;1859;-68
2022/08/25 01:14:17;;;;;;;;;;;;;;;19.33;64.96;96968.78;30002;982;1873;-68
2022/08/25 01:14:50;;;;;;;;;;;;;;;19.33;64.66;96959.72;30001;982;1881;-68
2022/08/25 01:15:21;;;;;;;;;;;;;;;19.31;64.89;96965.56;30001;983;1876;-66
2022/08/25 01:15:53;;;;;;;;;;;;;;;19.30;64.88;96969.47;30001;983;1859;-69
2022/08/25 01:16:26;;;;;;;;;;;;;;;19.27;64.73;96970.16;30002;983;1850;-67
2022/08/25 01:16:58;;;;;;;;;;;;;;;19.25;65.11;96966.97;30001;983;1881;-68
2022/08/25 01:17:44;;;;;;;;;;;;;;;19.23;65.29;96963.75;30001;983;1876;-70
2022/08/25 01:18:15;;;;;;;;;;;;;;;19.20;65.16;96964.44;30001;983;1881;-67
2022/08/25 01:18:50;;;;;;;;;;;;;;;19.19;65.54;96962.84;30001;983;1855;-69
2022/08/25 01:19:21;;;;;;;;;;;;;;;19.18;65.24;96961.22;30001;982;1876;-66
2022/08/25 01:19:53;;;;;;;;;;;;;;;19.17;65.24;96956.88;30001;982;1877;-66
2022/08/25 01:20:26;;;;;;;;;;;;;;;19.18;65.40;96965.94;30001;982;1881;-54
2022/08/25 01:20:58;;;;;;;;;;;;;;;19.16;65.35;96969.03;30001;982;1877;-66
2022/08/25 01:21:33;;;;;;;;;;;;;;;19.15;65.47;96967.44;30001;982;1859;-70
2022/08/25 01:22:04;;;;;;;;;;;;;;;19.12;66.10;96961.81;30001;982;1873;-67
2022/08/25 01:22:36;;;;;;;;;;;;;;;19.07;65.55;96968.34;30001;983;1880;-68
2022/08/25 01:23:07;;;;;;;;;;;;;;;19.05;65.89;96962.41;30001;983;1876;-70
2022/08/25 01:23:38;;;;;;;;;;;;;;;19.04;65.82;96960.81;30001;983;1881;-66
2022/08/25 01:24:13;;;;;;;;;;;;;;;19.01;66.31;96958.75;30001;983;1876;-67
2022/08/25 01:24:46;;;;;;;;;;;;;;;18.97;65.73;96961.38;30001;983;1881;-67
2022/08/25 01:25:33;;;;;;;;;;;;;;;18.97;66.14;96961.38;30001;983;1876;-69
2022/08/25 01:26:09;;;;;;;;;;;;;;;18.95;66.28;96966.44;30001;971;1880;-65
2022/08/25 01:26:40;;;;;;;;;;;;;;;18.93;66.26;96965.16;30001;982;1850;-66
2022/08/25 01:27:11;;;;;;;;;;;;;;;18.90;66.41;96960.37;30001;982;1881;-67
2022/08/25 01:27:42;;;;;;;;;;;;;;;18.87;66.24;96955.53;30001;982;1877;-69
2022/08/25 01:28:14;;;;;;;;;;;;;;;18.84;66.33;96962.53;30001;982;1881;-66
2022/08/25 01:29:36;;;;;;;;;;;;;;;18.81;66.64;96968.72;30001;969;1881;-69
2022/08/25 01:30:08;;;;;;;;;;;;;;;18.79;66.77;96961.97;30001;983;1872;-65
2022/08/25 01:30:39;;;;;;;;;;;;;;;18.77;66.75;96962.31;30001;983;1880;-69
2022/08/25 01:31:10;;;;;;;;;;;;;;;18.75;66.93;96965.41;30001;983;1876;-69
2022/08/25 01:31:41;;;;;;;;;;;;;;;18.75;66.67;96970.88;30001;983;1859;-67
2022/08/25 01:32:13;;;;;;;;;;;;;;;18.73;66.70;96967.69;30001;983;1872;-68
2022/08/25 01:32:44;;;;;;;;;;;;;;;18.70;67.64;96970.34;30001;983;1859;-68
2022/08/25 01:33:16;;;;;;;;;;;;;;;18.68;67.55;96967.94;30001;983;1872;-69
2022/08/25 01:33:47;;;;;;;;;;;;;;;18.66;67.44;96961.97;30001;983;1881;-69
2022/08/25 01:34:18;;;;;;;;;;;;;;;18.65;67.31;96968.63;30001;982;1877;-69
2022/08/25 01:34:49;;;;;;;;;;;;;;;18.63;67.57;96962.66;30001;982;1881;-67
2022/08/25 01:35:23;;;;;;;;;;;;;;;18.62;67.23;96963.00;30001;987;1877;-67
2022/08/25 01:35:54;;;;;;;;;;;;;;;18.62;67.30;96966.56;30001;982;1881;-69
2022/08/25 01:36:26;;;;;;;;;;;;;;;18.62;67.57;96960.25;30001;982;1855;-55
2022/08/25 01:36:57;;;;;;;;;;;;;;;18.62;67.26;96966.56;30001;983;1876;-55
2022/08/25 01:37:28;;;;;;;;;;;;;;;18.61;67.46;96964.16;30001;964;1898;-66
2022/08/25 01:38:00;;;;;;;;;;;;;;;18.60;67.63;96963.34;30001;983;1881;-67
2022/08/25 01:38:31;;;;;;;;;;;;;;;18.61;67.54;96964.94;30001;983;1876;-67
2022/08/25 01:39:02;;;;;;;;;;;;;;;18.61;67.70;96964.16;30003;802;1014;-68
2022/08/25 01:39:35;;;;;;;;;;;;;;;18.60;67.66;96968.84;30001;983;1876;-69
2022/08/25 01:40:06;;;;;;;;;;;;;;;18.59;67.80;96966.41;30001;983;1881;-67
2022/08/25 01:40:38;;;;;;;;;;;;;;;18.57;67.94;96964.00;30001;983;1876;-69
2022/08/25 01:41:09;;;;;;;;;;;;;;;18.57;67.74;96958.50;30001;983;1859;-68
2022/08/25 01:42:18;;;;;;;;;;;;;;;18.58;67.87;96964.81;30001;983;1872;-69
2022/08/25 01:43:06;;;;;;;;;;;;;;;18.58;67.78;96960.09;30001;982;1855;-68
2022/08/25 01:43:38;;;;;;;;;;;;;;;18.60;68.69;96965.28;30001;982;1850;-67
2022/08/25 01:44:08;;;;;;;;;;;;;;;18.60;67.90;96963.34;30001;982;1881;-68
2022/08/25 01:44:41;;;;;;;;;;;;;;;18.59;67.96;96961.72;30001;983;1876;-67
2022/08/25 01:45:12;;;;;;;;;;;;;;;18.62;68.09;96969.31;30001;983;1880;-55
2022/08/25 01:45:45;;;;;;;;;;;;;;;18.63;68.08;96968.16;30001;983;1876;-67
2022/08/25 01:46:16;;;;;;;;;;;;;;;18.65;68.11;96967.81;30001;983;1881;-67
2022/08/25 01:46:47;;;;;;;;;;;;;;;18.66;67.75;96961.19;30001;987;1876;-68
2022/08/25 01:47:19;;;;;;;;;;;;;;;18.66;67.94;96967.47;30001;983;1859;-67
2022/08/25 01:47:51;;;;;;;;;;;;;;;18.67;67.97;96963.59;30001;983;1872;-69
2022/08/25 01:48:21;;;;;;;;;;;;;;;18.68;67.78;96967.94;30001;983;1881;-68
2022/08/25 01:48:52;;;;;;;;;;;;;;;18.68;68.60;96965.19;30001;968;1879;-67
2022/08/25 01:49:23;;;;;;;;;;;;;;;18.68;69.33;96965.19;30001;982;1877;-67
2022/08/25 01:49:54;;;;;;;;;;;;;;;18.67;69.04;96969.09;30001;982;1877;-68
2022/08/25 01:50:26;;;;;;;;;;;;;;;18.67;68.72;96974.56;30001;982;1881;-66
2022/08/25 01:50:57;;;;;;;;;;;;;;;18.67;68.77;96968.28;30001;982;1877;-69
2022/08/25 01:51:32;;;;;;;;;;;;;;;18.67;69.01;96968.28;30001;982;1881;-66
2022/08/25 01:52:15;;;;;;;;;;;;;;;18.65;68.52;96971.38;30001;983;1809;-68
2022/08/25 01:52:53;;;;;;;;;;;;;;;18.67;68.69;96968.28;30001;983;1880;-67
2022/08/25 01:53:28;;;;;;;;;;;;;;;18.66;68.29;96972.16;30001;983;1876;-69
2022/08/25 01:53:59;;;;;;;;;;;;;;;18.67;68.55;96968.28;30001;983;1859;-67
2022/08/25 01:54:30;;;;;;;;;;;;;;;18.66;69.06;96967.47;30001;983;1872;-68
2022/08/25 01:55:00;;;;;;;;;;;;;;;18.65;69.01;96971.38;30001;983;1881;-66
2022/08/25 01:55:50;;;;;;;;;;;;;;;18.65;68.38;96965.88;30001;983;1876;-67
2022/08/25 01:56:21;;;;;;;;;;;;;;;18.67;68.36;96971.03;30001;983;1859;-67
2022/08/25 01:56:52;;;;;;;;;;;;;;;18.67;68.37;96969.09;30001;982;1872;-55
2022/08/25 01:57:23;;;;;;;;;;;;;;;18.67;68.25;96969.09;30001;982;1881;-68
2022/08/25 01:57:54;;;;;;;;;;;;;;;18.67;68.31;96971.81;30001;977;1895;-68
2022/08/25 01:58:28;;;;;;;;;;;;;;;18.66;68.35;96967.47;30001;982;1881;-67
2022/08/25 01:58:59;;;;;;;;;;;;;;;18.66;68.67;96961.19;30001;982;1877;-68
2022/08/25 01:59:29;;;;;;;;;;;;;;;18.66;68.76;96961.19;30001;983;1880;-67
2022/08/25 02:00:00;;;;;;;;;;;;;;;18.65;68.62;96965.88;30001;983;1876;-68
2022/08/25 02:00:31;;;;;;;;;;;;;;;18.64;68.83;96963.47;30001;983;1881;-55
2022/08/25 02:01:04;;;;;;;;;;;;;;;18.63;68.95;96965.41;30001;983;1854;-68
2022/08/25 02:01:35;;;;;;;;;;;;;;;18.62;68.81;96965.75;30001;983;1876;-68
2022/08/25 02:02:05;;;;;;;;;;;;;;;18.61;69.03;96964.94;30001;983;1876;-69
2022/08/25 02:02:36;;;;;;;;;;;;;;;18.60;69.72;96963.34;30001;983;1881;-68
2022/08/25 02:03:07;;;;;;;;;;;;;;;18.57;69.49;96966.75;30001;983;1877;-66
2022/08/25 02:03:39;;;;;;;;;;;;;;;18.55;69.57;96955.28;30001;983;1859;-67
2022/08/25 02:04:11;;;;;;;;;;;;;;;18.53;69.41;96963.06;30001;983;1872;-70
2022/08/25 02:04:41;;;;;;;;;;;;;;;18.53;69.25;96965.81;30001;982;1881;-69
2022/08/25 02:05:13;;;;;;;;;;;;;;;18.53;69.41;96963.06;30001;982;1877;-68
2022/08/25 02:05:44;;;;;;;;;;;;;;;18.52;69.43;96966.97;30001;982;1881;-69
2022/08/25 02:06:19;;;;;;;;;;;;;;;18.51;69.38;96964.56;30001;982;1877;-68
2022/08/25 02:06:50;;;;;;;;;;;;;;;18.50;69.53;96962.97;30001;982;1881;-69
2022/08/25 02:07:21;;;;;;;;;;;;;;;18.48;69.49;96970.75;30001;983;1876;-68
2022/08/25 02:07:52;;;;;;;;;;;;;;;18.48;69.39;96970.75;30001;983;1859;-67
2022/08/25 02:08:23;;;;;;;;;;;;;;;18.48;69.79;96966.03;30001;983;1872;-67
2022/08/25 02:08:57;;;;;;;;;;;;;;;18.47;69.56;96969.13;30001;961;1902;-54
2022/08/25 02:09:28;;;;;;;;;;;;;;;18.44;69.76;96965.13;30001;983;1876;-69
2022/08/25 02:09:59;;;;;;;;;;;;;;;18.43;70.05;96969.81;30001;983;1881;-68
2022/08/25 02:10:31;;;;;;;;;;;;;;;18.41;69.70;96960.31;30001;983;1877;-68
2022/08/25 02:11:03;;;;;;;;;;;;;;;18.39;69.79;96968.09;30001;983;1881;-70
2022/08/25 02:11:35;;;;;;;;;;;;;;;18.40;69.39;96958.69;30001;982;1877;-68
2022/08/25 02:12:08;;;;;;;;;;;;;;;18.40;69.85;96966.94;30001;982;1881;-70
2022/08/25 02:12:39;;;;;;;;;;;;;;;18.37;69.78;96965.69;30001;982;1877;-67
2022/08/25 02:13:11;;;;;;;;;;;;;;;18.36;69.50;96974.28;30001;982;1859;-69
2022/08/25 02:13:42;;;;;;;;;;;;;;;18.36;69.72;96975.09;30001;982;1851;-70
2022/08/25 02:14:14;;;;;;;;;;;;;;;18.36;69.83;96974.28;30001;982;1881;-55
2022/08/25 02:14:45;;;;;;;;;;;;;;;18.34;69.75;96973.81;30001;983;1876;-68
2022/08/25 02:15:15;;;;;;;;;;;;;;;18.32;69.96;96971.41;30001;983;1881;-69
2022/08/25 02:15:49;;;;;;;;;;;;;;;18.30;69.62;96965.47;30001;983;1876;-55
2022/08/25 02:16:24;;;;;;;;;;;;;;;18.30;70.57;96975.66;30001;983;1881;-66
2022/08/25 02:16:56;;;;;;;;;;;;;;;18.27;70.27;96973.56;30001;983;1876;-68
2022/08/25 02:17:28;;;;;;;;;;;;;;;18.26;70.24;96969.22;30001;983;1881;-67
2022/08/25 02:17:59;;;;;;;;;;;;;;;18.26;70.24;96969.22;30001;983;1877;-67
2022/08/25 02:18:30;;;;;;;;;;;;;;;18.25;70.09;96975.87;30001;983;1881;-67
2022/08/25 02:19:03;;;;;;;;;;;;;;;18.25;70.47;96973.13;30001;982;1855;-69
2022/08/25 02:19:34;;;;;;;;;;;;;;;18.23;69.98;96967.16;30001;982;1877;-68
2022/08/25 02:20:06;;;;;;;;;;;;;;;18.22;70.33;96969.09;30001;982;1877;-67
2022/08/25 02:20:37;;;;;;;;;;;;;;;18.22;70.17;96969.09;30001;982;1881;-69
2022/08/25 02:21:10;;;;;;;;;;;;;;;18.21;70.05;96972.19;30001;982;1877;-67
2022/08/25 02:21:41;;;;;;;;;;;;;;;18.21;70.31;96972.19;30001;982;1881;-67
2022/08/25 02:22:11;;;;;;;;;;;;;;;18.20;70.05;96970.59;30001;983;1876;-66
2022/08/25 02:22:42;;;;;;;;;;;;;;;18.21;70.05;96975.75;30001;983;1880;-70
2022/08/25 02:23:14;;;;;;;;;;;;;;;18.22;70.14;96976.53;30001;983;1876;-69
2022/08/25 02:23:45;;;;;;;;;;;;;;;18.24;70.26;96971.50;30001;983;1881;-70
2022/08/25 02:24:16;;;;;;;;;;;;;;;18.24;70.73;96977.00;30001;983;1854;-55
2022/08/25 02:24:47;;;;;;;;;;;;;;;18.22;70.98;96976.53;30001;983;1876;-69
2022/08/25 02:25:19;;;;;;;;;;;;;;;18.17;70.74;96971.25;30001;983;1876;-69
2022/08/25 02:25:50;;;;;;;;;;;;;;;18.14;70.53;96972.75;30001;983;1881;-69
2022/08/25 02:26:21;;;;;;;;;;;;;;;18.12;70.85;96974.22;30001;982;1877;-69
2022/08/25 02:26:52;;;;;;;;;;;;;;;18.13;71.05;96975.81;30001;982;1881;-68
2022/08/25 02:27:23;;;;;;;;;;;;;;;18.13;71.14;96971.12;30001;982;1877;-68
2022/08/25 02:27:54;;;;;;;;;;;;;;;18.14;70.95;96971.94;30001;982;1881;-68
2022/08/25 02:28:26;;;;;;;;;;;;;;;18.14;70.84;96971.94;30001;982;1877;-68
2022/08/25 02:28:57;;;;;;;;;;;;;;;18.11;71.14;96967.94;30001;982;1881;-68
2022/08/25 02:29:28;;;;;;;;;;;;;;;18.11;71.14;96967.13;30001;982;1855;-68
2022/08/25 02:29:58;;;;;;;;;;;;;;;18.09;70.82;96971.00;30001;983;1854;-69
2022/08/25 02:30:29;;;;;;;;;;;;;;;18.08;70.75;96971.34;30001;983;1876;-67
2022/08/25 02:31:00;;;;;;;;;;;;;;;18.09;71.20;96971.00;30001;983;1880;-71
2022/08/25 02:31:31;;;;;;;;;;;;;;;18.06;71.51;96977.16;30001;983;1876;-67
2022/08/25 02:32:03;;;;;;;;;;;;;;;18.03;71.97;96966.06;30001;983;1881;-69
2022/08/25 02:32:34;;;;;;;;;;;;;;;17.98;72.75;96964.38;30001;983;1876;-56
2022/08/25 02:33:05;;;;;;;;;;;;;;;17.96;71.92;96972.12;30001;983;1881;-70
2022/08/25 02:33:36;;;;;;;;;;;;;;;17.96;71.49;96971.34;30001;983;1877;-68
2022/08/25 02:34:08;;;;;;;;;;;;;;;17.98;71.61;96963.56;30001;982;1881;-70
2022/08/25 02:34:40;;;;;;;;;;;;;;;17.98;71.47;96964.38;30001;982;1877;-68
2022/08/25 02:35:13;;;;;;;;;;;;;;;17.97;71.57;96962.75;30001;982;1859;-56
2022/08/25 02:35:44;;;;;;;;;;;;;;;17.98;71.24;96964.38;30001;982;1872;-69
2022/08/25 02:36:15;;;;;;;;;;;;;;;17.99;71.47;96967.91;30001;982;1881;-70
2022/08/25 02:36:46;;;;;;;;;;;;;;;18.00;71.30;96967.56;30001;982;1877;-68
2022/08/25 02:37:17;;;;;;;;;;;;;;;18.02;71.13;96961.72;30001;983;1880;-67
2022/08/25 02:37:49;;;;;;;;;;;;;;;18.05;71.23;96963.78;30001;983;1876;-71
2022/08/25 02:38:21;;;;;;;;;;;;;;;18.08;71.25;96961.16;30001;986;1881;-70
2022/08/25 02:38:52;;;;;;;;;;;;;;;18.10;71.08;96974.56;30001;983;1876;-69
2022/08/25 02:39:28;;;;;;;;;;;;;;;18.09;71.42;96965.50;30001;983;1881;-56
2022/08/25 02:39:59;;;;;;;;;;;;;;;18.05;72.00;96970.06;30002;778;1013;-67
2022/08/25 02:40:30;;;;;;;;;;;;;;;18.03;71.80;96964.12;30001;983;1859;-69
2022/08/25 02:41:08;;;;;;;;;;;;;;;18.02;71.48;96959.78;30001;983;1872;-68
2022/08/25 02:41:39;;;;;;;;;;;;;;;18.03;71.40;96961.38;30001;982;1881;-69
2022/08/25 02:42:09;;;;;;;;;;;;;;;18.03;71.50;96971.56;30001;982;1877;-70
2022/08/25 02:42:40;;;;;;;;;;;;;;;18.02;71.81;96970.75;30001;982;1881;-56
2022/08/25 02:43:11;;;;;;;;;;;;;;;18.00;72.44;96964.03;30001;982;1877;-67
2022/08/25 02:43:42;;;;;;;;;;;;;;;17.96;72.46;96965.84;30001;982;1881;-68
2022/08/25 02:44:14;;;;;;;;;;;;;;;17.95;72.61;96964.22;30001;983;1876;-69
2022/08/25 02:44:45;;;;;;;;;;;;;;;17.92;72.54;96971.19;30001;983;1859;-70
2022/08/25 02:45:17;;;;;;;;;;;;;;;17.91;72.71;96977.84;30001;983;1872;-71
2022/08/25 02:45:48;;;;;;;;;;;;;;;17.89;72.43;96966.38;30001;983;1880;-68
2022/08/25 02:46:19;;;;;;;;;;;;;;;17.88;72.20;96964.78;30001;983;1876;-70
2022/08/25 02:46:50;;;;;;;;;;;;;;;17.90;72.07;96968.00;30001;983;1881;-68
2022/08/25 02:47:24;;;;;;;;;;;;;;;17.91;71.90;96969.59;30001;983;1876;-68
2022/08/25 02:47:56;;;;;;;;;;;;;;;17.94;72.03;96974.41;30001;983;1881;-70
2022/08/25 02:48:27;;;;;;;;;;;;;;;17.97;71.68;96967.44;30001;983;1876;-70
2022/08/25 02:48:58;;;;;;;;;;;;;;;17.98;71.63;96961.63;30001;982;1785;-69
2022/08/25 02:49:30;;;;;;;;;;;;;;;17.98;71.50;96967.09;30001;982;1877;-71
2022/08/25 02:50:05;;;;;;;;;;;;;;;17.98;71.55;96964.38;30001;982;1859;-71
2022/08/25 02:50:43;;;;;;;;;;;;;;;17.98;72.14;96960.81;30001;982;1851;-56
2022/08/25 02:51:14;;;;;;;;;;;;;;;17.94;72.71;96963.44;30001;982;1881;-68
2022/08/25 02:51:45;;;;;;;;;;;;;;;17.93;71.92;96961.03;30001;983;1876;-70
2022/08/25 02:52:15;;;;;;;;;;;;;;;17.94;71.92;96962.63;30001;983;1880;-71
2022/08/25 02:52:49;;;;;;;;;;;;;;;17.94;71.58;96968.91;30001;983;1876;-69
2022/08/25 02:53:20;;;;;;;;;;;;;;;17.96;71.80;96963.91;30001;983;1881;-68
2022/08/25 02:53:51;;;;;;;;;;;;;;;17.96;71.43;96966.66;30001;983;1876;-69